Time;durP1;ratioP1;P1;durP2;ratioP2;P2;SDS_P1;SDS_P2;PMS_P1;PMS_P2;Temp;Humidity;BMP_temperature;BMP_pressure;BME280_temperature;BME280_humidity;BME280_pressure;Samples;Min_cycle;Max_cycle;Signal;HPM_P1;HPM_P2
2022/03/31 00:00:17;;;;;;;12.03;8.17;;;6.60;1.00;;;;;;5069374;28;20521;-55
2022/03/31 00:02:42;;;;;;;10.17;8.33;;;6.50;1.00;;;;;;5067240;28;20446;-58
2022/03/31 00:05:08;;;;;;;9.00;8.10;;;6.50;1.00;;;;;;5052059;28;20498;-56
2022/03/31 00:07:34;;;;;;;11.57;9.40;;;6.50;1.00;;;;;;5070458;28;20217;-57
2022/03/31 00:10:00;;;;;;;10.33;9.07;;;;;;;;;;5070246;28;20982;-57
2022/03/31 00:12:26;;;;;;;11.70;9.00;;;6.60;1.00;;;;;;5070076;28;20290;-58
2022/03/31 00:14:52;;;;;;;10.80;8.93;;;;;;;;;;5069728;28;20967;-58
2022/03/31 00:17:18;;;;;;;12.33;9.33;;;6.70;1.00;;;;;;5065040;28;20769;-57
2022/03/31 00:19:44;;;;;;;9.73;8.53;;;6.60;1.00;;;;;;5049016;28;20466;-58
2022/03/31 00:22:09;;;;;;;9.30;8.30;;;6.70;1.00;;;;;;5068834;28;20863;-59
2022/03/31 00:24:35;;;;;;;10.67;8.70;;;6.50;1.00;;;;;;5069764;28;21016;-58
2022/03/31 00:27:00;;;;;;;13.70;8.80;;;6.50;1.00;;;;;;5065703;28;20191;-58
2022/03/31 00:29:27;;;;;;;10.00;8.90;;;6.60;1.00;;;;;;5070359;28;20218;-57
2022/03/31 00:31:54;;;;;;;10.43;9.27;;;;;;;;;;5068756;28;20233;-56
2022/03/31 00:34:20;;;;;;;11.23;8.57;;;6.60;1.00;;;;;;5066061;28;20536;-57
2022/03/31 00:36:45;;;;;;;14.00;9.40;;;6.60;1.00;;;;;;5070764;28;20591;-57
2022/03/31 00:39:29;;;;;;;10.20;9.10;;;6.70;1.00;;;;;;5067414;28;20666;-56
2022/03/31 00:41:55;;;;;;;9.90;8.50;;;;;;;;;;5070771;28;20248;-57
2022/03/31 00:44:21;;;;;;;10.80;8.20;;;6.80;1.00;;;;;;5069453;28;20442;-57
2022/03/31 00:46:51;;;;;;;12.87;9.73;;;6.80;1.00;;;;;;5070778;28;20449;-58
2022/03/31 00:49:21;;;;;;;10.77;8.83;;;6.70;1.00;;;;;;5069770;28;20724;-56
2022/03/31 00:51:50;;;;;;;10.13;8.37;;;6.70;1.00;;;;;;5068940;28;20446;-56
2022/03/31 00:54:19;;;;;;;12.03;9.50;;;6.60;1.00;;;;;;5070692;28;20445;-56
2022/03/31 00:56:46;;;;;;;8.83;7.40;;;6.60;1.00;;;;;;5065834;28;20576;-57
2022/03/31 00:59:12;;;;;;;11.63;8.63;;;6.50;1.00;;;;;;5068004;28;20998;-57
2022/03/31 01:01:42;;;;;;;10.13;8.97;;;6.50;1.00;;;;;;5069222;28;20448;-58
2022/03/31 01:04:08;;;;;;;10.40;9.30;;;6.50;1.00;;;;;;5065441;28;21335;-56
2022/03/31 01:06:34;;;;;;;10.30;9.00;;;6.50;1.00;;;;;;5069878;28;20441;-56
2022/03/31 01:09:01;;;;;;;12.80;9.43;;;6.40;1.00;;;;;;5066762;28;20481;-58
2022/03/31 01:11:28;;;;;;;15.27;9.20;;;6.30;1.00;;;;;;5065132;28;20981;-58
2022/03/31 01:13:55;;;;;;;10.87;9.63;;;6.30;1.00;;;;;;5064079;28;20612;-56
2022/03/31 01:16:20;;;;;;;10.83;9.57;;;6.30;1.00;;;;;;5069770;28;20429;-57
2022/03/31 01:18:46;;;;;;;10.40;9.30;;;6.40;1.00;;;;;;5063295;28;20772;-56
2022/03/31 01:21:11;;;;;;;11.53;9.50;;;6.50;1.00;;;;;;5063811;28;20191;-57
2022/03/31 01:23:37;;;;;;;12.43;9.60;;;6.40;1.00;;;;;;5067796;28;20275;-57
2022/03/31 01:26:10;;;;;;;10.83;8.83;;;6.30;1.00;;;;;;5068578;28;20206;-56
2022/03/31 01:28:41;;;;;;;11.63;8.40;;;6.30;1.00;;;;;;5067670;28;20211;-57
2022/03/31 01:31:07;;;;;;;15.53;10.70;;;6.10;1.00;;;;;;5066083;28;20437;-57
2022/03/31 01:33:33;;;;;;;12.83;10.17;;;6.10;1.00;;;;;;5067360;28;20448;-55
2022/03/31 01:35:59;;;;;;;12.40;9.17;;;6.10;1.00;;;;;;5073958;28;20429;-56
2022/03/31 01:38:25;;;;;;;14.57;10.60;;;6.00;1.00;;;;;;5070610;28;20270;-56
2022/03/31 01:40:51;;;;;;;14.30;10.47;;;5.90;1.00;;;;;;5072817;28;20469;-56
2022/03/31 01:43:17;;;;;;;11.93;9.70;;;5.90;1.00;;;;;;5068272;28;20445;-56
2022/03/31 01:45:43;;;;;;;10.73;9.60;;;6.00;1.00;;;;;;5067980;28;20533;-56
2022/03/31 01:48:09;;;;;;;13.40;11.00;;;;;;;;;;5065038;28;20537;-58
2022/03/31 01:50:36;;;;;;;12.53;9.33;;;6.00;1.00;;;;;;5072324;28;20179;-56
2022/03/31 01:53:02;;;;;;;16.13;11.77;;;6.00;1.00;;;;;;5072895;28;20442;-56
2022/03/31 01:55:27;;;;;;;15.03;11.77;;;6.00;1.00;;;;;;5074142;28;20414;-56
2022/03/31 01:57:53;;;;;;;13.53;10.70;;;6.20;1.00;;;;;;5074254;28;20188;-57
2022/03/31 02:00:18;;;;;;;13.63;12.20;;;6.20;1.00;;;;;;5067859;28;20183;-57
2022/03/31 02:02:44;;;;;;;15.27;11.77;;;6.10;1.00;;;;;;5069969;28;20219;-57
2022/03/31 02:05:10;;;;;;;16.80;10.67;;;6.10;1.00;;;;;;5063356;28;20645;-57
2022/03/31 02:07:36;;;;;;;14.47;12.93;;;6.00;1.00;;;;;;5060611;28;20258;-56
2022/03/31 02:10:03;;;;;;;14.00;10.30;;;5.90;1.00;;;;;;5066864;28;21054;-57
2022/03/31 02:12:29;;;;;;;16.10;12.50;;;5.90;1.00;;;;;;5074295;28;20951;-56
2022/03/31 02:14:54;;;;;;;13.77;11.63;;;5.90;1.00;;;;;;5069861;28;20438;-57
2022/03/31 02:17:20;;;;;;;16.97;13.67;;;6.00;1.00;;;;;;5067740;28;20183;-57
2022/03/31 02:19:45;;;;;;;13.83;11.43;;;6.10;1.00;;;;;;5073065;28;20218;-58
2022/03/31 02:22:11;;;;;;;16.87;13.10;;;6.10;1.00;;;;;;5069443;28;20278;-56
2022/03/31 02:24:37;;;;;;;16.87;13.43;;;6.10;1.00;;;;;;5065021;28;20191;-57
2022/03/31 02:27:04;;;;;;;18.70;13.37;;;6.10;1.00;;;;;;5066971;28;20608;-57
2022/03/31 02:29:30;;;;;;;19.67;14.70;;;6.10;1.00;;;;;;5063326;28;20210;-56
2022/03/31 02:31:56;;;;;;;18.10;14.10;;;6.00;1.00;;;;;;5071850;28;20942;-55
2022/03/31 02:34:22;;;;;;;15.87;13.00;;;5.90;1.00;;;;;;5070392;28;20176;-57
2022/03/31 02:36:48;;;;;;;20.57;15.07;;;6.00;1.00;;;;;;5072808;28;20529;-57
2022/03/31 02:39:14;;;;;;;20.40;13.90;;;6.00;1.00;;;;;;5069028;28;20680;-58
2022/03/31 02:41:39;;;;;;;20.27;13.87;;;6.10;1.00;;;;;;5072269;28;20437;-56
2022/03/31 02:44:06;;;;;;;18.93;14.70;;;6.10;1.00;;;;;;5068718;28;20258;-56
2022/03/31 02:46:32;;;;;;;16.30;13.30;;;6.10;1.00;;;;;;5068414;28;20186;-59
2022/03/31 02:48:59;;;;;;;20.40;14.03;;;6.20;1.00;;;;;;5072502;28;20771;-58
2022/03/31 02:51:25;;;;;;;18.80;14.07;;;6.20;1.00;;;;;;5072603;28;20448;-57
2022/03/31 02:56:37;;;;;;;22.20;14.87;;;6.00;1.00;;;;;;5072180;28;20515;-57
2022/03/31 02:59:04;;;;;;;21.83;15.03;;;6.10;1.00;;;;;;5070105;28;20624;-57
2022/03/31 03:01:30;;;;;;;21.97;17.27;;;5.90;1.00;;;;;;5070441;28;20460;-56
2022/03/31 03:03:57;;;;;;;20.03;14.03;;;5.90;1.00;;;;;;5067957;28;20446;-56
2022/03/31 03:06:23;;;;;;;23.73;15.27;;;5.80;1.00;;;;;;5067564;28;20188;-57
2022/03/31 03:08:48;;;;;;;21.47;15.50;;;5.60;1.00;;;;;;5069412;28;20477;-57
2022/03/31 03:11:15;;;;;;;21.40;15.50;;;5.60;1.00;;;;;;5071202;28;20207;-56
2022/03/31 03:13:41;;;;;;;21.07;16.17;;;5.50;1.00;;;;;;5069614;28;20253;-56
2022/03/31 03:16:09;;;;;;;20.13;15.87;;;5.50;1.00;;;;;;5071586;28;20943;-57
2022/03/31 03:18:35;;;;;;;20.93;16.80;;;5.50;1.00;;;;;;5068727;28;20703;-58
2022/03/31 03:21:02;;;;;;;25.40;17.70;;;5.50;1.00;;;;;;5071571;28;20457;-56
2022/03/31 03:23:27;;;;;;;16.10;12.17;;;5.40;1.00;;;;;;5069800;28;20452;-56
2022/03/31 03:25:53;;;;;;;22.00;14.77;;;5.20;1.00;;;;;;5069182;28;20433;-57
2022/03/31 03:28:19;;;;;;;24.10;15.90;;;5.20;1.00;;;;;;5065170;28;20588;-57
2022/03/31 03:30:45;;;;;;;20.07;15.57;;;5.30;1.00;;;;;;5068542;28;20179;-58
2022/03/31 03:33:11;;;;;;;22.63;15.77;;;5.30;1.00;;;;;;5067825;28;20229;-57
2022/03/31 03:35:36;;;;;;;25.57;17.63;;;5.20;1.00;;;;;;5068591;28;20441;-57
2022/03/31 03:38:02;;;;;;;19.70;15.13;;;5.20;1.00;;;;;;5066904;28;20184;-58
2022/03/31 03:40:29;;;;;;;17.40;14.33;;;5.10;1.00;;;;;;5069243;28;20198;-56
2022/03/31 03:42:55;;;;;;;26.40;17.67;;;5.20;1.00;;;;;;5069509;28;20278;-58
2022/03/31 03:45:20;;;;;;;21.87;13.23;;;5.20;1.00;;;;;;5071081;28;20550;-55
2022/03/31 03:47:48;;;;;;;24.53;15.57;;;5.10;1.00;;;;;;5069860;28;20195;-57
2022/03/31 03:50:14;;;;;;;24.47;14.70;;;5.00;1.00;;;;;;5071151;28;20233;-56
2022/03/31 03:52:40;;;;;;;21.70;14.77;;;5.00;1.00;;;;;;5068468;28;20454;-57
2022/03/31 03:55:06;;;;;;;23.73;16.87;;;5.00;1.00;;;;;;5069036;28;20187;-56
2022/03/31 03:57:31;;;;;;;27.33;15.00;;;5.00;1.00;;;;;;5069462;28;20191;-58
2022/03/31 03:59:57;;;;;;;20.40;16.10;;;5.10;1.00;;;;;;5070735;28;20464;-56
2022/03/31 04:02:22;;;;;;;26.43;17.73;;;5.10;1.00;;;;;;5068407;28;20232;-57
2022/03/31 04:04:48;;;;;;;21.37;15.30;;;5.20;1.00;;;;;;5070969;28;20172;-56
2022/03/31 04:07:14;;;;;;;15.77;12.40;;;;;;;;;;5070128;28;20200;-57
2022/03/31 04:09:40;;;;;;;22.57;17.17;;;4.80;1.00;;;;;;5068993;28;20589;-57
2022/03/31 04:12:06;;;;;;;23.40;15.37;;;4.80;1.00;;;;;;5068345;28;20516;-56
2022/03/31 04:14:31;;;;;;;21.57;15.97;;;4.80;1.00;;;;;;5069157;28;20183;-56
2022/03/31 04:16:57;;;;;;;22.80;16.60;;;4.90;1.00;;;;;;5069844;28;20188;-58
2022/03/31 04:19:23;;;;;;;20.87;16.97;;;4.90;1.00;;;;;;5067401;28;20218;-57
2022/03/31 04:21:48;;;;;;;25.70;17.37;;;4.90;1.00;;;;;;5070629;28;20186;-58
2022/03/31 04:24:14;;;;;;;24.30;17.23;;;4.90;1.00;;;;;;5070086;28;20449;-57
2022/03/31 04:26:40;;;;;;;20.67;16.43;;;4.90;1.00;;;;;;5069257;28;20198;-58
2022/03/31 04:29:08;;;;;;;22.67;16.07;;;4.90;1.00;;;;;;5067866;28;20206;-57
2022/03/31 04:31:41;;;;;;;21.37;14.57;;;4.80;1.00;;;;;;5051796;28;20461;-55
2022/03/31 04:34:08;;;;;;;19.93;14.77;;;4.60;1.00;;;;;;5069229;28;21022;-57
2022/03/31 04:36:34;;;;;;;20.50;15.93;;;4.70;1.00;;;;;;5069788;28;20531;-57
2022/03/31 04:39:00;;;;;;;25.47;17.70;;;4.70;1.00;;;;;;5050505;28;20886;-56
2022/03/31 04:41:26;;;;;;;25.83;18.07;;;4.70;1.00;;;;;;5069953;28;20441;-58
2022/03/31 04:43:53;;;;;;;23.33;17.93;;;4.80;1.00;;;;;;5051448;28;20199;-56
2022/03/31 04:46:19;;;;;;;21.83;16.80;;;4.80;1.00;;;;;;5069903;28;20171;-57
2022/03/31 04:48:45;;;;;;;23.57;18.47;;;4.80;1.00;;;;;;5069969;28;20457;-57
2022/03/31 04:51:11;;;;;;;23.80;17.80;;;4.80;1.00;;;;;;5067802;28;20437;-56
2022/03/31 04:53:36;;;;;;;26.00;19.57;;;;;;;;;;5067716;28;21046;-58
2022/03/31 04:56:08;;;;;;;28.87;18.27;;;4.90;1.00;;;;;;5069452;28;20613;-56
2022/03/31 04:58:36;;;;;;;33.60;19.53;;;4.80;1.00;;;;;;5068416;28;20437;-56
2022/03/31 05:01:02;;;;;;;22.03;16.30;;;4.80;1.00;;;;;;5066993;28;20464;-57
2022/03/31 05:03:27;;;;;;;28.13;17.60;;;4.80;1.00;;;;;;5066293;28;20449;-56
2022/03/31 05:05:53;;;;;;;28.53;18.20;;;4.90;1.00;;;;;;5068010;28;20461;-57
2022/03/31 05:08:18;;;;;;;23.80;18.00;;;4.80;1.00;;;;;;5070228;28;20218;-57
2022/03/31 05:10:45;;;;;;;20.30;15.23;;;;;;;;;;5071912;28;20179;-57
2022/03/31 05:13:11;;;;;;;28.97;18.17;;;4.70;1.00;;;;;;5072690;28;20187;-57
2022/03/31 05:15:38;;;;;;;22.00;17.30;;;4.70;1.00;;;;;;5072012;28;20449;-58
2022/03/31 05:18:04;;;;;;;23.80;17.17;;;4.80;1.00;;;;;;5073424;28;20791;-59
2022/03/31 05:20:30;;;;;;;22.30;16.47;;;4.80;1.00;;;;;;5072712;28;20445;-58
2022/03/31 05:22:55;;;;;;;22.37;16.40;;;4.80;1.00;;;;;;5072199;28;20194;-56
2022/03/31 05:25:21;;;;;;;17.00;13.10;;;4.70;1.00;;;;;;5072473;28;20190;-59
2022/03/31 05:27:47;;;;;;;23.07;18.00;;;4.70;1.00;;;;;;5072461;28;20194;-58
2022/03/31 05:30:15;;;;;;;24.03;16.70;;;4.80;1.00;;;;;;5071891;28;20210;-56
2022/03/31 05:32:41;;;;;;;24.00;17.47;;;4.80;1.00;;;;;;5069486;28;20466;-59
2022/03/31 05:35:09;;;;;;;25.03;18.03;;;4.90;1.00;;;;;;5072467;28;20437;-57
2022/03/31 05:37:35;;;;;;;22.73;17.63;;;5.10;1.00;;;;;;5071408;28;20582;-58
2022/03/31 05:40:04;;;;;;;21.10;17.17;;;5.10;1.00;;;;;;5072746;28;20469;-58
2022/03/31 05:42:30;;;;;;;26.97;17.70;;;;;;;;;;5072932;28;21020;-59
2022/03/31 05:44:56;;;;;;;22.70;17.10;;;5.30;1.00;;;;;;5073446;28;20551;-57
2022/03/31 05:47:21;;;;;;;22.50;17.57;;;5.30;1.00;;;;;;5071851;28;20441;-57
2022/03/31 05:49:46;;;;;;;27.10;18.33;;;5.50;1.00;;;;;;5072957;28;20234;-58
2022/03/31 05:52:12;;;;;;;21.20;17.33;;;5.50;1.00;;;;;;5070900;28;20180;-56
2022/03/31 05:54:38;;;;;;;25.17;18.20;;;5.50;1.00;;;;;;5072530;28;20194;-57
2022/03/31 05:57:04;;;;;;;23.07;17.90;;;5.70;1.00;;;;;;5073110;28;20648;-59
2022/03/31 05:59:29;;;;;;;20.90;15.40;;;5.70;1.00;;;;;;5073676;28;20445;-58
2022/03/31 06:01:55;;;;;;;25.60;17.80;;;5.70;1.00;;;;;;5069872;28;20183;-59
2022/03/31 06:04:21;;;;;;;25.57;16.80;;;5.80;1.00;;;;;;5072442;28;20198;-59
2022/03/31 06:06:48;;;;;;;25.13;17.00;;;5.80;1.00;;;;;;5072851;28;20183;-56
2022/03/31 06:09:14;;;;;;;23.70;16.80;;;5.80;1.00;;;;;;5068948;28;20469;-56
2022/03/31 06:11:40;;;;;;;25.70;17.03;;;5.80;1.00;;;;;;5069870;28;20448;-58
2022/03/31 06:14:06;;;;;;;21.40;15.37;;;5.80;1.00;;;;;;5072968;28;20480;-58
2022/03/31 06:16:32;;;;;;;24.67;18.40;;;5.80;1.00;;;;;;5069938;28;20491;-57
2022/03/31 06:18:58;;;;;;;25.03;15.73;;;5.90;1.00;;;;;;5071162;28;20527;-57
2022/03/31 06:21:23;;;;;;;19.30;16.27;;;5.90;1.00;;;;;;5072721;28;20437;-58
2022/03/31 06:23:49;;;;;;;21.67;16.10;;;5.90;1.00;;;;;;5071028;28;20191;-56
2022/03/31 06:26:14;;;;;;;20.70;16.70;;;5.80;1.00;;;;;;5072881;28;20183;-57
2022/03/31 06:28:40;;;;;;;19.60;16.17;;;5.90;1.00;;;;;;5070045;28;20202;-57
2022/03/31 06:31:09;;;;;;;20.10;16.00;;;5.90;1.00;;;;;;5072720;28;20183;-56
2022/03/31 06:33:34;;;;;;;19.70;15.37;;;5.80;1.00;;;;;;5071404;28;20191;-56
2022/03/31 06:36:00;;;;;;;21.70;16.63;;;5.80;1.00;;;;;;5072214;28;20441;-57
2022/03/31 06:38:26;;;;;;;22.40;17.73;;;6.00;1.00;;;;;;5072397;28;20179;-57
2022/03/31 06:43:41;;;;;;;20.20;16.70;;;6.00;1.00;;;;;;5071417;28;20425;-55
2022/03/31 06:46:07;;;;;;;22.50;16.27;;;6.00;1.00;;;;;;5072713;28;20422;-57
2022/03/31 06:48:33;;;;;;;25.27;16.70;;;6.00;1.00;;;;;;5071748;28;21151;-56
2022/03/31 06:50:59;;;;;;;25.80;17.47;;;6.00;1.00;;;;;;5069093;28;20187;-57
2022/03/31 06:53:25;;;;;;;22.20;17.37;;;5.90;1.00;;;;;;5072707;28;20441;-57
2022/03/31 06:55:51;;;;;;;20.27;16.77;;;5.90;1.00;;;;;;5072307;28;20261;-58
2022/03/31 06:58:17;;;;;;;20.97;16.07;;;5.90;1.00;;;;;;5071220;28;20449;-57
2022/03/31 07:00:44;;;;;;;19.50;16.60;;;6.00;1.00;;;;;;5072522;28;20187;-56
2022/03/31 07:03:09;;;;;;;22.23;16.47;;;5.90;1.00;;;;;;5072817;28;20868;-57
2022/03/31 07:05:39;;;;;;;22.70;17.27;;;5.90;1.00;;;;;;5072471;28;20480;-57
2022/03/31 07:08:05;;;;;;;23.77;17.87;;;5.90;1.00;;;;;;5072656;28;20198;-58
2022/03/31 07:10:30;;;;;;;24.17;16.17;;;5.90;1.00;;;;;;5072100;28;20477;-57
2022/03/31 07:12:56;;;;;;;22.80;16.50;;;5.90;1.00;;;;;;5072487;28;20445;-56
2022/03/31 07:15:22;;;;;;;19.30;16.70;;;5.90;1.00;;;;;;5071978;28;20179;-59
2022/03/31 07:17:47;;;;;;;18.63;14.97;;;6.00;1.00;;;;;;5072291;28;20187;-60
2022/03/31 07:20:13;;;;;;;19.33;14.90;;;5.90;1.00;;;;;;5072536;28;20541;-58
2022/03/31 07:22:49;;;;;;;20.23;15.50;;;5.80;1.00;;;;;;5071957;28;20435;-56
2022/03/31 07:25:17;;;;;;;22.00;17.17;;;5.80;1.00;;;;;;5068931;28;20179;-58
2022/03/31 07:27:44;;;;;;;20.30;15.40;;;5.90;1.00;;;;;;5072170;28;20456;-59
2022/03/31 07:30:13;;;;;;;23.93;16.80;;;5.90;1.00;;;;;;5071695;28;20469;-58
2022/03/31 07:33:09;;;;;;;18.97;16.20;;;5.90;1.00;;;;;;5053785;28;20440;-57
2022/03/31 07:35:39;;;;;;;25.37;16.60;;;6.10;1.00;;;;;;5058289;28;20585;-58
2022/03/31 07:38:08;;;;;;;20.70;16.40;;;6.10;1.00;;;;;;5072498;28;20568;-56
2022/03/31 07:40:34;;;;;;;22.40;15.93;;;6.20;1.00;;;;;;5072588;28;20449;-58
2022/03/31 07:43:01;;;;;;;20.93;14.67;;;5.90;1.00;;;;;;5072233;28;20433;-56
2022/03/31 07:45:28;;;;;;;22.03;16.70;;;5.70;1.00;;;;;;5072482;28;20970;-58
2022/03/31 07:47:54;;;;;;;23.23;15.60;;;5.60;1.00;;;;;;5071696;28;20449;-56
2022/03/31 07:50:21;;;;;;;22.10;15.20;;;5.60;1.00;;;;;;5072103;28;20507;-58
2022/03/31 07:52:48;;;;;;;22.20;16.33;;;5.60;1.00;;;;;;5072129;28;20437;-57
2022/03/31 07:55:16;;;;;;;21.70;17.73;;;5.60;1.00;;;;;;5072235;28;20496;-59
2022/03/31 07:57:43;;;;;;;19.93;16.23;;;5.60;1.00;;;;;;5072143;28;20431;-58
2022/03/31 08:00:11;;;;;;;21.63;16.83;;;5.70;1.00;;;;;;5072242;28;20775;-57
2022/03/31 08:02:39;;;;;;;21.93;16.23;;;5.70;1.00;;;;;;5072208;28;20445;-58
2022/03/31 08:05:05;;;;;;;19.60;15.63;;;5.70;1.00;;;;;;5071108;28;20444;-58
2022/03/31 08:07:31;;;;;;;22.77;16.87;;;5.60;1.00;;;;;;5072154;28;20950;-56
2022/03/31 08:09:56;;;;;;;20.13;15.20;;;5.50;1.00;;;;;;5071887;28;20222;-57
2022/03/31 08:12:22;;;;;;;21.43;15.40;;;5.50;1.00;;;;;;5071510;28;20218;-56
2022/03/31 08:14:47;;;;;;;23.10;16.67;;;5.40;1.00;;;;;;5071655;28;20175;-57
2022/03/31 08:17:13;;;;;;;21.03;16.03;;;5.40;1.00;;;;;;5071961;28;20590;-58
2022/03/31 08:19:39;;;;;;;22.10;17.53;;;5.60;1.00;;;;;;5072071;28;20194;-57
2022/03/31 08:22:05;;;;;;;24.57;16.47;;;;;;;;;;5071639;28;20179;-57
2022/03/31 08:24:30;;;;;;;21.60;16.10;;;5.60;1.00;;;;;;5071958;28;20183;-57
2022/03/31 08:26:58;;;;;;;22.33;17.20;;;5.60;1.00;;;;;;5071705;28;20978;-57
2022/03/31 08:29:25;;;;;;;20.40;16.73;;;5.60;1.00;;;;;;5071845;28;20248;-58
2022/03/31 08:31:52;;;;;;;23.93;17.63;;;5.50;1.00;;;;;;5072021;28;20457;-58
2022/03/31 08:34:17;;;;;;;21.80;15.57;;;5.50;1.00;;;;;;5069360;28;20451;-58
2022/03/31 08:36:43;;;;;;;23.00;17.07;;;5.30;1.00;;;;;;5072028;28;20990;-57
2022/03/31 08:39:09;;;;;;;24.40;17.40;;;5.50;1.00;;;;;;5071977;28;20289;-58
2022/03/31 08:41:34;;;;;;;20.73;16.13;;;5.60;1.00;;;;;;5068685;28;20222;-57
2022/03/31 08:44:00;;;;;;;23.40;17.00;;;5.70;1.00;;;;;;5073882;28;20206;-57
2022/03/31 08:46:34;;;;;;;19.83;16.73;;;5.70;1.00;;;;;;5075874;28;20184;-58
2022/03/31 08:48:59;;;;;;;26.83;15.63;;;5.90;1.00;;;;;;5075638;28;20289;-59
2022/03/31 08:51:25;;;;;;;21.43;17.17;;;5.80;1.00;;;;;;5075847;28;20989;-57
2022/03/31 08:53:51;;;;;;;26.37;17.77;;;6.00;1.00;;;;;;5075746;28;20183;-58
2022/03/31 08:56:17;;;;;;;21.03;17.43;;;6.00;1.00;;;;;;5075785;28;20442;-58
2022/03/31 08:58:44;;;;;;;21.57;17.70;;;6.20;1.00;;;;;;5073150;28;20540;-57
2022/03/31 09:01:12;;;;;;;23.57;17.23;;;6.10;1.00;;;;;;5073430;28;20262;-57
2022/03/31 09:03:39;;;;;;;20.43;16.33;;;6.20;1.00;;;;;;5074569;28;20981;-60
2022/03/31 09:06:21;;;;;;;21.33;15.60;;;6.20;1.00;;;;;;5074447;28;20472;-56
2022/03/31 09:09:04;;;;;;;21.27;16.47;;;6.20;1.00;;;;;;5072874;28;21260;-56
2022/03/31 09:11:35;;;;;;;21.47;16.33;;;6.30;1.00;;;;;;5075532;28;20510;-56
2022/03/31 09:14:03;;;;;;;20.80;17.10;;;6.30;1.00;;;;;;5075153;28;20504;-59
2022/03/31 09:16:38;;;;;;;21.93;17.13;;;6.30;1.00;;;;;;5075749;28;20440;-58
2022/03/31 09:19:11;;;;;;;17.80;15.27;;;6.30;1.00;;;;;;5071917;28;20803;-56
2022/03/31 09:21:58;;;;;;;21.07;17.20;;;6.10;1.00;;;;;;5072456;28;20441;-57
2022/03/31 09:24:27;;;;;;;20.73;16.97;;;6.10;1.00;;;;;;5071796;28;20974;-55
2022/03/31 09:26:53;;;;;;;18.23;16.23;;;;;;;;;;5074420;28;20930;-57
2022/03/31 09:29:23;;;;;;;21.90;16.50;;;6.20;1.00;;;;;;5072409;28;20464;-58
2022/03/31 09:31:51;;;;;;;19.03;16.00;;;6.30;1.00;;;;;;5073489;28;20955;-58
2022/03/31 09:34:17;;;;;;;17.87;15.97;;;6.30;1.00;;;;;;5074304;28;20951;-56
2022/03/31 09:36:48;;;;;;;22.23;16.40;;;6.30;1.00;;;;;;5070255;28;20465;-58
2022/03/31 09:39:17;;;;;;;20.30;16.73;;;6.30;1.00;;;;;;5074122;28;20502;-59
2022/03/31 09:41:50;;;;;;;23.77;17.40;;;6.20;1.00;;;;;;5074392;28;20436;-59
2022/03/31 09:44:22;;;;;;;21.97;15.27;;;6.20;1.00;;;;;;5058634;28;20442;-57
2022/03/31 09:46:49;;;;;;;19.53;15.93;;;6.20;1.00;;;;;;5068705;28;20476;-58
2022/03/31 09:49:15;;;;;;;21.80;16.37;;;6.20;1.00;;;;;;5074551;28;20992;-59
2022/03/31 09:51:43;;;;;;;21.33;15.20;;;6.00;1.00;;;;;;5074665;28;20785;-57
2022/03/31 09:54:09;;;;;;;19.57;16.60;;;6.10;1.00;;;;;;5074244;28;21141;-56
2022/03/31 09:56:38;;;;;;;22.20;16.97;;;6.20;1.00;;;;;;5075063;28;20433;-57
2022/03/31 09:59:07;;;;;;;20.20;16.90;;;6.20;1.00;;;;;;5072906;28;20444;-58
2022/03/31 10:01:33;;;;;;;20.77;16.33;;;6.40;1.00;;;;;;5074328;28;20451;-57
2022/03/31 10:03:59;;;;;;;23.97;17.73;;;6.30;1.00;;;;;;5074551;28;20433;-58
2022/03/31 10:06:25;;;;;;;20.67;15.63;;;6.30;1.00;;;;;;5074309;28;20499;-58
2022/03/31 10:08:51;;;;;;;21.13;17.37;;;6.40;1.00;;;;;;5074208;28;20226;-56
2022/03/31 10:11:23;;;;;;;20.33;16.43;;;6.50;1.00;;;;;;5073090;28;20444;-58
2022/03/31 10:14:03;;;;;;;21.00;15.13;;;6.50;1.00;;;;;;5074005;28;20933;-56
2022/03/31 10:16:42;;;;;;;21.97;15.40;;;6.20;1.00;;;;;;5073908;28;20514;-58
2022/03/31 10:19:08;;;;;;;22.40;16.93;;;6.20;1.00;;;;;;5070688;28;20470;-59
2022/03/31 10:21:34;;;;;;;21.03;16.57;;;6.20;1.00;;;;;;5074057;28;20457;-57
2022/03/31 10:26:44;;;;;;;17.70;15.27;;;;;;;;;;5073729;28;20965;-57
2022/03/31 10:29:15;;;;;;;18.37;13.93;;;6.20;1.00;;;;;;5069665;28;20488;-58
2022/03/31 10:31:46;;;;;;;18.73;15.97;;;6.10;1.00;;;;;;5074024;28;20519;-60
2022/03/31 10:34:14;;;;;;;20.27;15.93;;;5.80;1.00;;;;;;5074309;28;20472;-59
2022/03/31 10:36:45;;;;;;;27.73;17.03;;;5.90;1.00;;;;;;5073871;28;20434;-56
2022/03/31 10:39:22;;;;;;;21.37;16.10;;;5.70;1.00;;;;;;5074036;28;20528;-57
2022/03/31 10:42:00;;;;;;;20.10;14.93;;;5.60;1.00;;;;;;5074125;28;20449;-56
2022/03/31 10:44:26;;;;;;;22.97;18.37;;;5.70;1.00;;;;;;5073859;28;20461;-57
2022/03/31 10:47:03;;;;;;;20.70;15.67;;;5.80;1.00;;;;;;5073513;28;20477;-57
2022/03/31 10:49:29;;;;;;;17.87;13.20;;;;;;;;;;5070784;28;20644;-55
2022/03/31 10:51:55;;;;;;;24.40;17.07;;;5.70;1.00;;;;;;5055070;28;20458;-56
2022/03/31 10:54:33;;;;;;;20.50;15.90;;;5.70;1.00;;;;;;5072182;28;20457;-58
2022/03/31 10:57:18;;;;;;;21.73;14.50;;;5.60;1.00;;;;;;5072907;28;20229;-56
2022/03/31 10:59:47;;;;;;;18.97;14.43;;;5.50;1.00;;;;;;5073424;28;20446;-56
2022/03/31 11:02:15;;;;;;;22.27;16.10;;;5.50;1.00;;;;;;5070007;28;20441;-57
2022/03/31 11:04:49;;;;;;;23.07;17.60;;;5.60;1.00;;;;;;5071772;28;20446;-59
2022/03/31 11:07:17;;;;;;;19.93;15.20;;;5.80;1.00;;;;;;5075954;28;20487;-56
2022/03/31 11:09:43;;;;;;;21.33;14.30;;;5.80;1.00;;;;;;5071869;28;20477;-57
2022/03/31 11:12:29;;;;;;;20.33;15.60;;;5.70;1.00;;;;;;5072418;28;20429;-58
2022/03/31 11:15:05;;;;;;;20.10;15.93;;;5.90;1.00;;;;;;5072322;28;20283;-59
2022/03/31 11:17:31;;;;;;;20.27;15.10;;;6.00;1.00;;;;;;5072691;28;20490;-57
2022/03/31 11:19:59;;;;;;;21.00;17.30;;;6.00;1.00;;;;;;5072115;28;20511;-57
2022/03/31 11:22:27;;;;;;;23.03;17.17;;;6.10;1.00;;;;;;5071985;28;20437;-56
2022/03/31 11:24:54;;;;;;;19.77;16.10;;;6.00;1.00;;;;;;5072367;28;20442;-56
2022/03/31 11:27:50;;;;;;;19.87;16.53;;;5.80;1.00;;;;;;5072361;28;20445;-57
2022/03/31 11:30:22;;;;;;;20.03;15.17;;;5.40;1.00;;;;;;5049402;28;20502;-56
2022/03/31 11:32:52;;;;;;;17.00;12.70;;;5.50;1.00;;;;;;5071573;28;20498;-55
2022/03/31 11:35:20;;;;;;;20.13;15.20;;;5.30;1.00;;;;;;5068667;28;20923;-56
2022/03/31 11:37:55;;;;;;;20.27;15.07;;;5.40;1.00;;;;;;5070652;28;21331;-55
2022/03/31 11:40:27;;;;;;;21.30;15.63;;;5.50;1.00;;;;;;5072380;28;20843;-56
2022/03/31 11:42:56;;;;;;;22.27;15.83;;;5.60;1.00;;;;;;5072400;28;20441;-56
2022/03/31 11:45:26;;;;;;;22.17;17.83;;;5.70;1.00;;;;;;5072037;28;20776;-55
2022/03/31 11:48:05;;;;;;;20.23;15.30;;;5.80;1.00;;;;;;5068080;28;20772;-57
2022/03/31 11:50:32;;;;;;;18.13;14.70;;;5.60;1.00;;;;;;5071327;28;20548;-57
2022/03/31 11:52:58;;;;;;;19.20;16.27;;;5.50;1.00;;;;;;5074566;28;20441;-58
2022/03/31 11:55:24;;;;;;;20.07;15.23;;;5.70;1.00;;;;;;5071762;28;20803;-57
2022/03/31 11:57:59;;;;;;;22.77;17.50;;;5.70;1.00;;;;;;5071118;28;20444;-56
2022/03/31 12:00:29;;;;;;;23.03;17.10;;;5.80;1.00;;;;;;5071462;28;20481;-57
2022/03/31 12:02:58;;;;;;;21.27;15.90;;;5.90;1.00;;;;;;5070968;28;20791;-56
2022/03/31 12:05:23;;;;;;;25.00;17.23;;;5.90;1.00;;;;;;5070765;28;20528;-57
2022/03/31 12:07:50;;;;;;;26.43;16.07;;;5.80;1.00;;;;;;5066851;28;20572;-57
2022/03/31 12:10:16;;;;;;;24.30;17.30;;;5.80;1.00;;;;;;5071062;28;20236;-56
2022/03/31 12:12:47;;;;;;;25.07;19.00;;;5.70;1.00;;;;;;5071018;28;20429;-57
2022/03/31 12:15:19;;;;;;;24.20;17.70;;;5.60;1.00;;;;;;5070672;28;20336;-56
2022/03/31 12:17:56;;;;;;;21.93;17.40;;;5.70;1.00;;;;;;5071008;28;20434;-56
2022/03/31 12:20:22;;;;;;;23.30;18.20;;;5.70;1.00;;;;;;5070695;28;20490;-58
2022/03/31 12:22:48;;;;;;;21.17;17.33;;;5.80;1.00;;;;;;5071022;28;20520;-57
2022/03/31 12:25:13;;;;;;;24.80;18.93;;;5.90;1.00;;;;;;5071206;28;20529;-58
2022/03/31 12:27:48;;;;;;;25.20;19.20;;;5.90;1.00;;;;;;5074827;28;20184;-58
2022/03/31 12:30:15;;;;;;;22.60;16.80;;;5.90;1.00;;;;;;5071504;28;20210;-58
2022/03/31 12:32:48;;;;;;;22.63;18.50;;;5.90;1.00;;;;;;5070317;28;20456;-57
2022/03/31 12:35:14;;;;;;;21.50;16.63;;;5.90;1.00;;;;;;5070476;28;20516;-57
2022/03/31 12:37:45;;;;;;;22.07;17.50;;;5.90;1.00;;;;;;5070902;28;20529;-58
2022/03/31 12:40:13;;;;;;;21.77;15.07;;;5.90;1.00;;;;;;5071180;28;20189;-58
2022/03/31 12:43:00;;;;;;;31.00;18.83;;;5.60;1.00;;;;;;5069037;28;20525;-59
2022/03/31 12:45:28;;;;;;;27.47;19.53;;;5.80;1.00;;;;;;5066588;28;20506;-57
2022/03/31 12:47:54;;;;;;;21.47;17.13;;;5.90;1.00;;;;;;5070708;28;20473;-60
2022/03/31 12:50:25;;;;;;;24.30;17.67;;;6.00;1.00;;;;;;5069561;28;20784;-58
2022/03/31 12:53:02;;;;;;;22.87;17.83;;;6.10;1.00;;;;;;5070560;28;20525;-57
2022/03/31 12:55:29;;;;;;;22.97;17.20;;;6.10;1.00;;;;;;5052919;28;20465;-58
2022/03/31 12:57:56;;;;;;;26.50;20.03;;;6.30;1.00;;;;;;5069266;28;20438;-58
2022/03/31 13:00:22;;;;;;;21.60;17.47;;;6.30;1.00;;;;;;5071763;28;20438;-57
2022/03/31 13:02:48;;;;;;;27.40;17.30;;;6.30;1.00;;;;;;5069396;28;20529;-58